Report METAR

 

LIPB - Bolzano(Civ/It-A, Italy
Distance from station: NNE 37km
Dati ricevuti: 08/08/2020 22:50
DATI Obsoleti
Sereno
Sereno
 Vento da calmo
Vento: Calma
Temperatura: 23°C
P.to Rugiada: 17°C
Umidità: 69%
Barometro: 1018 hPa
Summary: Sereno
Visibility: superiore a 10 km
2020/08/08 20:50 LIPB 082050Z 00000KT CAVOK 23/17 Q1018
LIVR - Rolle Pass, Italy
Distance from station: ENE 46km
Dati ricevuti: 08/08/2020 22:55
DATI Obsoleti
Sereno
Sereno
 Vento da ENE
Vento: ENE 2 km/h
Temperatura: 14°C
P.to Rugiada: 8°C
Umidità: 67%
Barometro: 1028 hPa
Summary: Sereno
Visibility: superiore a 10 km
2020/08/08 20:55 LIVR 082055Z 06001KT CAVOK 14/08 Q1028 RMK SKC MON LIB VIS MIN 9999
 
LIPS - Istrana (it-Afb), Italy
Distance from station: SE 86km
Dati ricevuti: 09/08/2020 03:55
Sereno
Sereno
 Vento da N
Vento: N 9 km/h
Temperatura: 25°C
P.to Rugiada: 20°C
Umidità: 74%
Barometro: 1016 hPa
Summary: Sereno
Visibility: superiore a 10 km
2020/08/09 01:55 LIPS 090155Z 01005KT CAVOK 25/20 Q1016 RMK SKC VIS MIN 9999 WIND THR26 00000KT WIND THR08 00000KT BLU
LIPX - Villafranca(Cv/M, Italy
Distance from station: SSO 88km
Dati ricevuti: 09/08/2020 04:20
Sereno
Sereno
 Vento da NO
Vento: NO 4 km/h
Temperatura: 20°C
P.to Rugiada: 16°C
Umidità: 78%
Barometro: 1017 hPa
Nuvole: Sereno
Visibility: 10 km
2020/08/09 02:20 LIPX 090220Z AUTO 32002KT 9999 NCD 20/16 Q1017
 
LIPH - Treviso(Civ/It-A, Italy
Distance from station: SE 94km
Dati ricevuti: 09/08/2020 04:20
Sereno
Sereno
 Vento da Variabile
Vento: Variabile 2 km/h
Temperatura: 21°C
P.to Rugiada: 18°C
Umidità: 83%
Barometro: 1016 hPa
Nuvole: Sereno
Visibility: 10 km
2020/08/09 02:20 LIPH 090220Z AUTO VRB01KT 9999 NCD 21/18 Q1016
LIVE - Resia Pass, Italy
Distance from station: NO 95km
Dati ricevuti: 09/08/2020 01:55
DATI Obsoleti
Sereno
Sereno
 Vento da NNE
Vento: NNE 4 km/h
Temperatura: 15°C
P.to Rugiada: 13°C
Umidità: 88%
Barometro: 1027 hPa
Summary: Sereno
Visibility: superiore a 10 km
2020/08/08 23:55 LIVE 082355Z 03002KT CAVOK 15/13 Q1027 RMK SKC VIS MIN 9999
 
LIPU - Padova (civ/It-A, Italy
Distance from station: SSE 98km
Dati ricevuti: 08/08/2020 08:00
DATI Obsoleti
Sereno
Sereno
 Vento da NNO
Vento: NNO 7 km/h
Temperatura: 24°C
P.to Rugiada: 16°C
Umidità: 61%
Barometro: 1018 hPa
Summary: Sereno
Visibility: superiore a 10 km
2020/08/08 06:00 LIPU 080600Z 34004KT 290V010 CAVOK 24/16 Q1018